createdAt,value
2023-02-17T00:00:17.401Z,10.00
2023-02-17T00:04:19.167Z,10.00
2023-02-17T00:08:21.060Z,10.00
2023-02-17T00:12:22.681Z,10.00
2023-02-17T00:16:25.453Z,10.00
2023-02-17T00:20:28.622Z,10.00
2023-02-17T00:24:31.568Z,10.00
2023-02-17T00:28:33.250Z,10.00
2023-02-17T00:32:34.800Z,10.00
2023-02-17T00:36:36.735Z,10.00
2023-02-17T00:40:38.963Z,10.10
2023-02-17T00:44:40.628Z,10.00
2023-02-17T00:48:42.333Z,10.00
2023-02-17T00:52:43.982Z,10.10
2023-02-17T00:56:45.974Z,10.00
2023-02-17T01:00:47.580Z,10.00
2023-02-17T01:04:49.329Z,10.10
2023-02-17T01:08:51.390Z,10.10
2023-02-17T01:12:53.007Z,10.10
2023-02-17T01:16:54.710Z,10.20
2023-02-17T01:20:56.345Z,10.10
2023-02-17T01:24:57.934Z,10.20
2023-02-17T01:28:59.846Z,10.20
2023-02-17T01:33:01.437Z,10.30
2023-02-17T01:37:02.993Z,10.30
2023-02-17T01:41:05.219Z,10.30
2023-02-17T01:45:19.075Z,10.40
2023-02-17T01:49:23.725Z,10.40
2023-02-17T01:53:29.538Z,10.40
2023-02-17T01:57:32.734Z,10.50
2023-02-17T02:01:35.066Z,10.50
2023-02-17T02:05:38.129Z,10.50
2023-02-17T02:09:42.780Z,10.50
2023-02-17T02:13:44.429Z,10.50
2023-02-17T02:18:04.814Z,10.50
2023-02-17T02:22:15.772Z,10.50
2023-02-17T02:26:23.528Z,10.60
2023-02-17T02:30:41.251Z,10.50
2023-02-17T02:34:47.929Z,10.50
2023-02-17T02:38:59.799Z,10.50
2023-02-17T02:43:02.129Z,10.50
2023-02-17T02:47:27.280Z,10.50
2023-02-17T02:51:49.101Z,10.50
2023-02-17T02:55:50.664Z,10.50
2023-02-17T03:00:11.683Z,10.50
2023-02-17T03:04:19.422Z,10.50
2023-02-17T03:08:25.604Z,10.50
2023-02-17T03:12:28.105Z,10.50
2023-02-17T03:16:29.898Z,10.50
2023-02-17T03:20:35.812Z,10.40
2023-02-17T03:24:37.452Z,10.40
2023-02-17T03:28:39.060Z,10.40
2023-02-17T03:32:40.964Z,10.40
2023-02-17T03:36:42.524Z,10.40
2023-02-17T03:40:44.192Z,10.40
2023-02-17T03:44:45.818Z,10.40
2023-02-17T03:48:47.433Z,10.40
2023-02-17T03:52:49.077Z,10.40
2023-02-17T04:01:16.659Z,10.40
2023-02-17T04:05:18.296Z,10.40
2023-02-17T04:09:19.965Z,10.40
2023-02-17T04:13:22.046Z,10.40
2023-02-17T04:17:23.639Z,10.40
2023-02-17T04:21:25.256Z,10.40
2023-02-17T04:25:27.008Z,10.40
2023-02-17T04:29:28.643Z,10.50
2023-02-17T04:33:30.864Z,10.50
2023-02-17T04:37:32.461Z,10.50
2023-02-17T04:41:34.098Z,10.50
2023-02-17T04:45:36.343Z,10.50
2023-02-17T04:49:37.914Z,10.60
2023-02-17T04:53:39.530Z,10.50
2023-02-17T04:57:41.346Z,10.60
2023-02-17T05:01:43.066Z,10.50
2023-02-17T05:05:45.600Z,10.50
2023-02-17T05:09:47.240Z,10.50
2023-02-17T05:13:49.205Z,10.50
2023-02-17T05:17:50.949Z,10.50
2023-02-17T05:21:52.534Z,10.50
2023-02-17T05:25:54.186Z,10.50
2023-02-17T05:29:55.802Z,10.50
2023-02-17T05:33:57.436Z,10.50
2023-02-17T05:37:59.117Z,10.60
2023-02-17T05:42:00.854Z,10.50
2023-02-17T05:46:04.048Z,10.50
2023-02-17T05:50:06.178Z,10.50
2023-02-17T05:54:07.776Z,10.50
2023-02-17T05:58:09.377Z,10.50
2023-02-17T06:02:11.062Z,10.50
2023-02-17T06:06:12.671Z,10.50
2023-02-17T06:10:14.710Z,10.40
2023-02-17T06:14:16.288Z,10.40
2023-02-17T06:18:17.914Z,10.40
2023-02-17T06:22:19.591Z,10.40
2023-02-17T06:26:21.297Z,10.40
2023-02-17T06:30:23.282Z,10.40
2023-02-17T06:34:25.243Z,10.40
2023-02-17T06:38:26.889Z,10.40
2023-02-17T06:42:28.600Z,10.40
2023-02-17T06:46:30.473Z,10.40
2023-02-17T06:50:32.160Z,10.50
2023-02-17T06:54:33.794Z,10.50
2023-02-17T06:58:36.579Z,10.50
2023-02-17T07:02:39.391Z,10.50
2023-02-17T07:06:41.309Z,10.60
2023-02-17T07:10:43.009Z,10.70
2023-02-17T07:14:44.574Z,10.80
2023-02-17T07:18:46.202Z,10.80
2023-02-17T07:22:47.993Z,10.90
2023-02-17T07:26:49.781Z,10.90
2023-02-17T07:30:51.688Z,10.90
2023-02-17T07:34:53.429Z,11.00
2023-02-17T07:38:55.366Z,11.00
2023-02-17T07:42:57.113Z,11.10
2023-02-17T07:46:58.739Z,11.00
2023-02-17T07:51:06.652Z,11.10
2023-02-17T07:55:10.114Z,11.20
2023-02-17T07:59:12.212Z,11.20
2023-02-17T08:03:13.905Z,11.30
2023-02-17T08:07:15.481Z,11.40
2023-02-17T08:11:35.881Z,11.50
2023-02-17T08:15:37.619Z,11.50
2023-02-17T08:19:48.047Z,11.50
2023-02-17T08:23:50.841Z,11.60
2023-02-17T08:27:52.626Z,11.60
2023-02-17T08:31:54.354Z,11.70
2023-02-17T08:35:56.109Z,11.70
2023-02-17T08:39:59.021Z,11.70
2023-02-17T08:44:02.504Z,11.80
2023-02-17T08:48:04.470Z,11.90
2023-02-17T08:52:06.096Z,12.00
2023-02-17T08:56:08.344Z,12.10
2023-02-17T09:00:10.581Z,12.10
2023-02-17T09:04:13.071Z,12.20
2023-02-17T09:08:14.857Z,12.30
2023-02-17T09:12:16.530Z,12.40
2023-02-17T09:16:20.922Z,12.50
2023-02-17T09:20:28.712Z,12.50
2023-02-17T09:24:33.035Z,12.60
2023-02-17T09:28:34.674Z,12.60
2023-02-17T09:32:36.315Z,12.70
2023-02-17T09:36:39.330Z,12.70
2023-02-17T09:40:40.946Z,12.70
2023-02-17T09:44:44.220Z,12.80
2023-02-17T09:48:47.778Z,12.90
2023-02-17T09:52:53.644Z,12.90
2023-02-17T09:56:57.020Z,13.10
2023-02-17T10:01:02.287Z,13.30
2023-02-17T10:05:06.078Z,13.30
2023-02-17T10:09:13.036Z,13.20
2023-02-17T10:13:16.030Z,13.20
2023-02-17T10:17:20.845Z,13.20
2023-02-17T10:21:26.976Z,13.40
2023-02-17T10:25:52.111Z,13.40
2023-02-17T10:30:16.139Z,13.50
2023-02-17T10:34:23.833Z,13.70
2023-02-17T10:38:37.746Z,13.80
2023-02-17T10:42:39.898Z,13.80
2023-02-17T10:46:42.848Z,13.80
2023-02-17T10:50:45.656Z,14.00
2023-02-17T10:54:47.323Z,14.00
2023-02-17T10:58:52.246Z,14.10
2023-02-17T11:02:53.911Z,14.30
2023-02-17T11:06:56.958Z,14.30
2023-02-17T11:11:00.385Z,14.60
2023-02-17T11:15:03.924Z,14.60
2023-02-17T11:19:06.957Z,14.60
2023-02-17T11:23:14.723Z,14.50
2023-02-17T11:27:23.813Z,14.50
2023-02-17T11:31:29.937Z,14.50
2023-02-17T11:35:37.690Z,14.60
2023-02-17T11:39:39.445Z,14.70
2023-02-17T11:43:51.192Z,14.80
2023-02-17T11:48:10.924Z,14.80
2023-02-17T11:52:19.138Z,14.90
2023-02-17T11:56:22.961Z,15.00
2023-02-17T12:00:32.734Z,14.90
2023-02-17T12:04:41.898Z,14.90
2023-02-17T12:08:52.535Z,14.90
2023-02-17T12:12:57.918Z,14.90
2023-02-17T12:16:59.492Z,15.00
2023-02-17T12:21:06.750Z,15.10
2023-02-17T12:25:26.687Z,14.90
2023-02-17T12:29:46.657Z,14.90
2023-02-17T12:33:48.252Z,15.10
2023-02-17T12:38:12.237Z,15.10
2023-02-17T12:42:24.931Z,15.20
2023-02-17T12:46:32.615Z,15.20
2023-02-17T12:50:38.817Z,15.20
2023-02-17T12:54:43.616Z,15.20
2023-02-17T12:58:45.334Z,15.40
2023-02-17T13:02:47.208Z,15.30
2023-02-17T13:06:52.100Z,15.50
2023-02-17T13:11:02.380Z,15.50
2023-02-17T13:15:05.680Z,15.60
2023-02-17T13:19:07.828Z,15.70
2023-02-17T13:23:12.508Z,15.80
2023-02-17T13:27:21.764Z,16.00
2023-02-17T13:31:24.974Z,16.10
2023-02-17T13:35:26.645Z,15.90
2023-02-17T13:39:28.315Z,16.10
2023-02-17T13:43:33.634Z,15.90
2023-02-17T13:47:37.762Z,15.90
2023-02-17T13:51:39.628Z,15.80
2023-02-17T13:55:41.817Z,15.70
2023-02-17T13:59:43.398Z,15.90
2023-02-17T14:03:48.129Z,15.60
2023-02-17T14:07:50.135Z,15.50
2023-02-17T14:11:52.773Z,15.30
2023-02-17T14:15:56.268Z,15.20
2023-02-17T14:19:58.333Z,15.00
2023-02-17T14:23:59.965Z,15.20
2023-02-17T14:28:01.702Z,15.30
2023-02-17T14:32:03.590Z,15.30
2023-02-17T14:36:09.065Z,15.50
2023-02-17T14:40:19.342Z,15.40
2023-02-17T14:44:20.976Z,15.30
2023-02-17T14:48:22.583Z,15.20
2023-02-17T14:52:24.939Z,15.30
2023-02-17T14:56:29.623Z,15.10
2023-02-17T15:00:31.502Z,15.10
2023-02-17T15:04:33.093Z,15.10
2023-02-17T15:08:34.942Z,15.00
2023-02-17T15:12:36.592Z,15.00
2023-02-17T15:16:38.180Z,14.90
2023-02-17T15:20:41.553Z,14.90
2023-02-17T15:24:43.253Z,15.00
2023-02-17T15:28:44.866Z,15.00
2023-02-17T15:32:46.876Z,14.90
2023-02-17T15:36:48.529Z,14.90
2023-02-17T15:40:50.270Z,14.80
2023-02-17T15:44:52.565Z,14.70
2023-02-17T15:48:54.199Z,14.70
2023-02-17T15:52:55.932Z,14.50
2023-02-17T15:56:57.662Z,14.50
2023-02-17T16:01:01.655Z,14.50
2023-02-17T16:05:03.503Z,14.30
2023-02-17T16:09:05.293Z,14.30
2023-02-17T16:13:07.936Z,14.20
2023-02-17T16:17:14.342Z,14.10
2023-02-17T16:21:16.381Z,14.10
2023-02-17T16:25:19.006Z,14.10
2023-02-17T16:29:21.551Z,14.00
2023-02-17T16:33:23.158Z,14.00
2023-02-17T16:37:24.775Z,14.00
2023-02-17T16:41:26.338Z,13.90
2023-02-17T16:45:29.379Z,13.80
2023-02-17T16:49:33.287Z,13.80
2023-02-17T16:53:36.506Z,13.70
2023-02-17T16:57:39.310Z,13.70
2023-02-17T17:01:40.965Z,13.50
2023-02-17T17:05:42.866Z,13.50
2023-02-17T17:09:48.674Z,13.30
2023-02-17T17:13:57.805Z,13.00
2023-02-17T17:18:00.632Z,12.90
2023-02-17T17:22:02.283Z,12.80
2023-02-17T17:26:12.300Z,12.60
2023-02-17T17:30:19.620Z,12.30
2023-02-17T17:34:21.255Z,12.20
2023-02-17T17:38:22.851Z,12.00
2023-02-17T17:42:24.435Z,11.90
2023-02-17T17:46:32.872Z,11.90
2023-02-17T17:50:34.544Z,11.90
2023-02-17T17:54:36.159Z,11.80
2023-02-17T17:58:38.975Z,11.60
2023-02-17T18:02:40.580Z,11.60
2023-02-17T18:06:44.322Z,11.50
2023-02-17T18:10:46.069Z,11.40
2023-02-17T18:14:49.237Z,11.40
2023-02-17T18:18:50.903Z,11.30
2023-02-17T18:22:52.521Z,11.30
2023-02-17T18:26:54.119Z,11.30
2023-02-17T18:30:56.969Z,11.40
2023-02-17T18:34:58.854Z,11.40
2023-02-17T18:39:00.443Z,11.40
2023-02-17T18:43:02.125Z,11.30
2023-02-17T18:47:03.746Z,11.20
2023-02-17T18:51:06.490Z,11.30
2023-02-17T18:55:08.357Z,11.30
2023-02-17T18:59:09.902Z,11.40
2023-02-17T19:03:11.824Z,11.40
2023-02-17T19:07:13.661Z,11.30
2023-02-17T19:11:16.128Z,11.30
2023-02-17T19:15:20.927Z,11.20
2023-02-17T19:19:22.767Z,11.30
2023-02-17T19:23:24.408Z,11.30
2023-02-17T19:27:26.098Z,11.30
2023-02-17T19:31:27.828Z,11.20
2023-02-17T19:35:29.447Z,11.10
2023-02-17T19:39:31.833Z,11.10
2023-02-17T19:43:33.466Z,11.10
2023-02-17T19:47:35.091Z,11.10
2023-02-17T19:51:36.722Z,11.10
2023-02-17T19:55:38.372Z,11.10
2023-02-17T19:59:39.928Z,11.00
2023-02-17T20:03:41.915Z,11.10
2023-02-17T20:07:43.521Z,11.10
2023-02-17T20:11:46.239Z,11.10
2023-02-17T20:15:47.864Z,11.10
2023-02-17T20:19:49.586Z,11.10
2023-02-17T20:23:51.651Z,11.10
2023-02-17T20:27:53.746Z,11.10
2023-02-17T20:31:55.439Z,11.10
2023-02-17T20:35:57.266Z,11.10
2023-02-17T20:39:58.897Z,11.00
2023-02-17T20:44:04.307Z,11.00
2023-02-17T20:48:06.504Z,11.00
2023-02-17T20:52:08.177Z,10.90
2023-02-17T20:56:18.042Z,10.90
2023-02-17T21:00:21.202Z,10.90
2023-02-17T21:04:22.858Z,10.90
2023-02-17T21:08:24.456Z,10.90
2023-02-17T21:12:26.100Z,10.90
2023-02-17T21:16:30.762Z,10.80
2023-02-17T21:20:32.521Z,10.80
2023-02-17T21:24:34.181Z,10.80
2023-02-17T21:28:35.808Z,10.80
2023-02-17T21:32:40.710Z,10.80
2023-02-17T21:36:42.339Z,10.70
2023-02-17T21:40:43.886Z,10.60
2023-02-17T21:44:55.220Z,10.60
2023-02-17T21:48:57.648Z,10.60
2023-02-17T21:52:59.247Z,10.60
2023-02-17T21:57:01.939Z,10.60
2023-02-17T22:01:05.362Z,10.50
2023-02-17T22:05:07.558Z,10.50
2023-02-17T22:09:11.217Z,10.50
2023-02-17T22:13:12.856Z,10.50
2023-02-17T22:17:14.557Z,10.50
2023-02-17T22:21:16.621Z,10.50
2023-02-17T22:25:18.544Z,10.50
2023-02-17T22:29:20.143Z,10.50
2023-02-17T22:33:21.832Z,10.50
2023-02-17T22:37:23.680Z,10.60
2023-02-17T22:41:25.942Z,10.60
2023-02-17T22:45:27.598Z,10.60
2023-02-17T22:49:29.271Z,10.50
2023-02-17T22:53:30.875Z,10.50
2023-02-17T22:57:32.510Z,10.50
2023-02-17T23:01:35.077Z,10.50
2023-02-17T23:05:36.671Z,10.50
2023-02-17T23:09:38.258Z,10.50
2023-02-17T23:13:40.051Z,10.40
2023-02-17T23:17:56.926Z,10.50
2023-02-17T23:22:03.366Z,10.50
2023-02-17T23:26:05.681Z,10.50
2023-02-17T23:30:08.956Z,10.50
2023-02-17T23:34:12.035Z,10.50
2023-02-17T23:38:15.159Z,10.50
2023-02-17T23:42:16.827Z,10.50
2023-02-17T23:46:18.842Z,10.50
2023-02-17T23:50:20.596Z,10.50
2023-02-17T23:54:22.188Z,10.50
2023-02-17T23:58:23.809Z,10.50
